sensor_id;sensor_type;location;lat;lon;timestamp;P1;durP1;ratioP1;P2;durP2;ratioP2
21758;SDS011;11041;50.854;20.580;2023-05-10T00:00:43;11.07;;;7.10;;
21758;SDS011;11041;50.854;20.580;2023-05-10T00:03:11;11.07;;;7.25;;
21758;SDS011;11041;50.854;20.580;2023-05-10T00:05:38;13.82;;;7.95;;
21758;SDS011;11041;50.854;20.580;2023-05-10T00:08:04;9.25;;;6.82;;
21758;SDS011;11041;50.854;20.580;2023-05-10T00:10:31;13.80;;;7.25;;
21758;SDS011;11041;50.854;20.580;2023-05-10T00:12:57;11.70;;;6.95;;
21758;SDS011;11041;50.854;20.580;2023-05-10T00:15:24;13.70;;;7.78;;
21758;SDS011;11041;50.854;20.580;2023-05-10T00:17:50;11.05;;;7.30;;
21758;SDS011;11041;50.854;20.580;2023-05-10T00:20:17;11.07;;;7.70;;
21758;SDS011;11041;50.854;20.580;2023-05-10T00:22:43;9.77;;;6.80;;
21758;SDS011;11041;50.854;20.580;2023-05-10T00:25:10;13.27;;;7.20;;
21758;SDS011;11041;50.854;20.580;2023-05-10T00:27:36;11.00;;;6.57;;
21758;SDS011;11041;50.854;20.580;2023-05-10T00:30:03;13.45;;;6.57;;
21758;SDS011;11041;50.854;20.580;2023-05-10T00:32:30;10.77;;;6.18;;
21758;SDS011;11041;50.854;20.580;2023-05-10T00:34:57;12.48;;;6.82;;
21758;SDS011;11041;50.854;20.580;2023-05-10T00:37:24;9.60;;;7.22;;
21758;SDS011;11041;50.854;20.580;2023-05-10T00:39:51;11.05;;;6.70;;
21758;SDS011;11041;50.854;20.580;2023-05-10T00:42:17;11.90;;;6.68;;
21758;SDS011;11041;50.854;20.580;2023-05-10T00:44:44;8.90;;;5.90;;
21758;SDS011;11041;50.854;20.580;2023-05-10T00:47:10;12.48;;;6.15;;
21758;SDS011;11041;50.854;20.580;2023-05-10T00:49:37;8.70;;;5.78;;
21758;SDS011;11041;50.854;20.580;2023-05-10T00:52:04;10.52;;;6.60;;
21758;SDS011;11041;50.854;20.580;2023-05-10T00:54:32;11.43;;;6.65;;
21758;SDS011;11041;50.854;20.580;2023-05-10T00:56:59;18.77;;;7.60;;
21758;SDS011;11041;50.854;20.580;2023-05-10T00:59:25;35.75;;;8.63;;
21758;SDS011;11041;50.854;20.580;2023-05-10T01:01:52;21.38;;;7.22;;
21758;SDS011;11041;50.854;20.580;2023-05-10T01:04:19;15.25;;;6.60;;
21758;SDS011;11041;50.854;20.580;2023-05-10T01:06:51;12.35;;;5.80;;
21758;SDS011;11041;50.854;20.580;2023-05-10T01:09:19;11.95;;;5.95;;
21758;SDS011;11041;50.854;20.580;2023-05-10T01:11:48;10.55;;;6.10;;
21758;SDS011;11041;50.854;20.580;2023-05-10T01:14:16;13.35;;;6.25;;
21758;SDS011;11041;50.854;20.580;2023-05-10T01:16:45;9.48;;;5.97;;
21758;SDS011;11041;50.854;20.580;2023-05-10T01:25:37;7.32;;;5.22;;
21758;SDS011;11041;50.854;20.580;2023-05-10T01:34:54;9.43;;;5.88;;
21758;SDS011;11041;50.854;20.580;2023-05-10T01:37:41;11.65;;;5.82;;
21758;SDS011;11041;50.854;20.580;2023-05-10T01:40:28;11.68;;;5.75;;
21758;SDS011;11041;50.854;20.580;2023-05-10T01:43:08;10.10;;;5.82;;
21758;SDS011;11041;50.854;20.580;2023-05-10T01:48:54;7.78;;;5.78;;
21758;SDS011;11041;50.854;20.580;2023-05-10T01:51:25;7.90;;;5.20;;
21758;SDS011;11041;50.854;20.580;2023-05-10T01:54:01;7.47;;;5.47;;
21758;SDS011;11041;50.854;20.580;2023-05-10T01:56:31;7.20;;;5.88;;
21758;SDS011;11041;50.854;20.580;2023-05-10T01:59:06;10.43;;;5.75;;
21758;SDS011;11041;50.854;20.580;2023-05-10T02:01:39;9.18;;;5.80;;
21758;SDS011;11041;50.854;20.580;2023-05-10T02:04:08;13.10;;;5.45;;
21758;SDS011;11041;50.854;20.580;2023-05-10T02:06:40;8.10;;;5.35;;
21758;SDS011;11041;50.854;20.580;2023-05-10T02:09:10;7.80;;;5.15;;
21758;SDS011;11041;50.854;20.580;2023-05-10T02:11:40;8.77;;;5.18;;
21758;SDS011;11041;50.854;20.580;2023-05-10T02:14:09;8.15;;;5.30;;
21758;SDS011;11041;50.854;20.580;2023-05-10T02:16:37;6.97;;;4.63;;
21758;SDS011;11041;50.854;20.580;2023-05-10T02:19:06;8.18;;;5.50;;
21758;SDS011;11041;50.854;20.580;2023-05-10T02:21:35;8.00;;;4.97;;
21758;SDS011;11041;50.854;20.580;2023-05-10T02:24:05;10.30;;;6.00;;
21758;SDS011;11041;50.854;20.580;2023-05-10T02:26:34;6.63;;;5.10;;
21758;SDS011;11041;50.854;20.580;2023-05-10T02:29:03;7.40;;;5.00;;
21758;SDS011;11041;50.854;20.580;2023-05-10T02:31:33;8.60;;;5.28;;
21758;SDS011;11041;50.854;20.580;2023-05-10T02:34:01;9.27;;;5.70;;
21758;SDS011;11041;50.854;20.580;2023-05-10T02:36:29;9.20;;;6.18;;
21758;SDS011;11041;50.854;20.580;2023-05-10T02:38:57;7.57;;;5.32;;
21758;SDS011;11041;50.854;20.580;2023-05-10T02:41:28;9.40;;;6.65;;
21758;SDS011;11041;50.854;20.580;2023-05-10T02:43:59;10.15;;;6.03;;
21758;SDS011;11041;50.854;20.580;2023-05-10T02:46:28;9.32;;;6.15;;
21758;SDS011;11041;50.854;20.580;2023-05-10T02:48:56;11.00;;;5.80;;
21758;SDS011;11041;50.854;20.580;2023-05-10T02:51:28;10.68;;;6.00;;
21758;SDS011;11041;50.854;20.580;2023-05-10T02:54:01;9.15;;;6.10;;
21758;SDS011;11041;50.854;20.580;2023-05-10T02:56:42;9.27;;;5.10;;
21758;SDS011;11041;50.854;20.580;2023-05-10T02:59:16;14.15;;;5.53;;
21758;SDS011;11041;50.854;20.580;2023-05-10T03:01:42;10.57;;;6.10;;
21758;SDS011;11041;50.854;20.580;2023-05-10T03:04:09;8.93;;;5.75;;
21758;SDS011;11041;50.854;20.580;2023-05-10T03:06:36;12.35;;;6.15;;
21758;SDS011;11041;50.854;20.580;2023-05-10T03:09:03;9.18;;;6.05;;
21758;SDS011;11041;50.854;20.580;2023-05-10T03:20:43;7.57;;;5.07;;
21758;SDS011;11041;50.854;20.580;2023-05-10T03:25:59;8.77;;;5.32;;
21758;SDS011;11041;50.854;20.580;2023-05-10T03:28:28;12.73;;;5.95;;
21758;SDS011;11041;50.854;20.580;2023-05-10T03:30:59;8.93;;;5.55;;
21758;SDS011;11041;50.854;20.580;2023-05-10T03:33:26;10.55;;;5.53;;
21758;SDS011;11041;50.854;20.580;2023-05-10T03:35:53;12.07;;;5.70;;
21758;SDS011;11041;50.854;20.580;2023-05-10T03:38:19;10.75;;;5.80;;
21758;SDS011;11041;50.854;20.580;2023-05-10T03:40:46;9.27;;;5.80;;
21758;SDS011;11041;50.854;20.580;2023-05-10T03:43:12;9.73;;;5.80;;
21758;SDS011;11041;50.854;20.580;2023-05-10T03:45:38;9.27;;;5.40;;
21758;SDS011;11041;50.854;20.580;2023-05-10T03:48:05;12.68;;;6.65;;
21758;SDS011;11041;50.854;20.580;2023-05-10T03:50:32;11.40;;;6.30;;
21758;SDS011;11041;50.854;20.580;2023-05-10T03:52:58;10.52;;;6.05;;
21758;SDS011;11041;50.854;20.580;2023-05-10T03:55:25;13.98;;;5.93;;
21758;SDS011;11041;50.854;20.580;2023-05-10T03:57:51;9.43;;;5.82;;
21758;SDS011;11041;50.854;20.580;2023-05-10T04:00:19;9.32;;;6.22;;
21758;SDS011;11041;50.854;20.580;2023-05-10T04:02:46;10.25;;;6.13;;
21758;SDS011;11041;50.854;20.580;2023-05-10T04:05:12;8.60;;;5.20;;
21758;SDS011;11041;50.854;20.580;2023-05-10T04:07:39;10.15;;;6.07;;
21758;SDS011;11041;50.854;20.580;2023-05-10T04:10:05;11.65;;;6.25;;
21758;SDS011;11041;50.854;20.580;2023-05-10T04:12:33;9.05;;;5.50;;
21758;SDS011;11041;50.854;20.580;2023-05-10T04:15:00;12.30;;;5.80;;
21758;SDS011;11041;50.854;20.580;2023-05-10T04:17:26;8.98;;;5.40;;
21758;SDS011;11041;50.854;20.580;2023-05-10T04:19:53;7.70;;;5.13;;
21758;SDS011;11041;50.854;20.580;2023-05-10T04:22:20;11.52;;;5.78;;
21758;SDS011;11041;50.854;20.580;2023-05-10T04:24:46;8.10;;;5.88;;
21758;SDS011;11041;50.854;20.580;2023-05-10T04:27:12;11.60;;;6.03;;
21758;SDS011;11041;50.854;20.580;2023-05-10T04:29:40;10.23;;;5.35;;
21758;SDS011;11041;50.854;20.580;2023-05-10T04:32:06;15.68;;;6.50;;
21758;SDS011;11041;50.854;20.580;2023-05-10T04:34:33;12.52;;;5.22;;
21758;SDS011;11041;50.854;20.580;2023-05-10T04:37:00;8.15;;;5.07;;
21758;SDS011;11041;50.854;20.580;2023-05-10T04:39:26;5.38;;;3.97;;
21758;SDS011;11041;50.854;20.580;2023-05-10T04:41:53;8.57;;;4.40;;
21758;SDS011;11041;50.854;20.580;2023-05-10T04:44:19;11.15;;;4.50;;
21758;SDS011;11041;50.854;20.580;2023-05-10T04:46:46;8.20;;;4.22;;
21758;SDS011;11041;50.854;20.580;2023-05-10T04:49:12;9.02;;;3.83;;
21758;SDS011;11041;50.854;20.580;2023-05-10T04:51:40;7.18;;;4.70;;
21758;SDS011;11041;50.854;20.580;2023-05-10T04:54:06;4.95;;;3.92;;
21758;SDS011;11041;50.854;20.580;2023-05-10T04:56:33;7.72;;;4.10;;
21758;SDS011;11041;50.854;20.580;2023-05-10T04:58:59;5.47;;;4.00;;
21758;SDS011;11041;50.854;20.580;2023-05-10T05:01:26;7.05;;;4.10;;
21758;SDS011;11041;50.854;20.580;2023-05-10T05:03:52;7.90;;;3.97;;
21758;SDS011;11041;50.854;20.580;2023-05-10T05:06:19;6.78;;;3.78;;
21758;SDS011;11041;50.854;20.580;2023-05-10T05:08:46;5.20;;;3.67;;
21758;SDS011;11041;50.854;20.580;2023-05-10T05:11:14;9.50;;;4.13;;
21758;SDS011;11041;50.854;20.580;2023-05-10T05:13:42;8.30;;;4.40;;
21758;SDS011;11041;50.854;20.580;2023-05-10T05:16:09;5.90;;;4.07;;
21758;SDS011;11041;50.854;20.580;2023-05-10T05:18:36;8.45;;;3.95;;
21758;SDS011;11041;50.854;20.580;2023-05-10T05:21:12;11.73;;;4.55;;
21758;SDS011;11041;50.854;20.580;2023-05-10T05:23:44;12.73;;;4.15;;
21758;SDS011;11041;50.854;20.580;2023-05-10T05:26:11;11.27;;;4.30;;
21758;SDS011;11041;50.854;20.580;2023-05-10T05:28:38;13.18;;;4.90;;
21758;SDS011;11041;50.854;20.580;2023-05-10T05:31:05;7.28;;;4.22;;
21758;SDS011;11041;50.854;20.580;2023-05-10T05:33:33;7.03;;;3.97;;
21758;SDS011;11041;50.854;20.580;2023-05-10T05:36:01;5.50;;;4.00;;
21758;SDS011;11041;50.854;20.580;2023-05-10T05:38:30;14.70;;;4.38;;
21758;SDS011;11041;50.854;20.580;2023-05-10T05:40:56;9.85;;;3.88;;
21758;SDS011;11041;50.854;20.580;2023-05-10T05:43:24;14.82;;;4.57;;
21758;SDS011;11041;50.854;20.580;2023-05-10T05:45:54;9.25;;;4.00;;
21758;SDS011;11041;50.854;20.580;2023-05-10T05:48:23;9.68;;;3.75;;
21758;SDS011;11041;50.854;20.580;2023-05-10T05:50:53;17.67;;;4.72;;
21758;SDS011;11041;50.854;20.580;2023-05-10T05:53:22;6.88;;;4.05;;
21758;SDS011;11041;50.854;20.580;2023-05-10T05:55:52;8.75;;;4.07;;
21758;SDS011;11041;50.854;20.580;2023-05-10T05:58:24;12.10;;;3.97;;
21758;SDS011;11041;50.854;20.580;2023-05-10T06:00:51;12.48;;;4.28;;
21758;SDS011;11041;50.854;20.580;2023-05-10T06:03:18;11.43;;;4.00;;
21758;SDS011;11041;50.854;20.580;2023-05-10T06:05:45;7.68;;;3.90;;
21758;SDS011;11041;50.854;20.580;2023-05-10T06:08:12;3.00;;;2.80;;
21758;SDS011;11041;50.854;20.580;2023-05-10T06:10:39;5.30;;;3.25;;
21758;SDS011;11041;50.854;20.580;2023-05-10T06:13:05;5.22;;;3.90;;
21758;SDS011;11041;50.854;20.580;2023-05-10T06:15:32;4.47;;;4.03;;
21758;SDS011;11041;50.854;20.580;2023-05-10T06:17:58;6.30;;;3.25;;
21758;SDS011;11041;50.854;20.580;2023-05-10T06:20:25;5.47;;;3.60;;
21758;SDS011;11041;50.854;20.580;2023-05-10T06:22:51;14.20;;;3.85;;
21758;SDS011;11041;50.854;20.580;2023-05-10T06:25:18;6.10;;;3.30;;
21758;SDS011;11041;50.854;20.580;2023-05-10T06:27:44;4.35;;;2.97;;
21758;SDS011;11041;50.854;20.580;2023-05-10T06:30:11;6.70;;;3.53;;
21758;SDS011;11041;50.854;20.580;2023-05-10T06:32:40;6.30;;;3.40;;
21758;SDS011;11041;50.854;20.580;2023-05-10T06:35:09;5.22;;;3.55;;
21758;SDS011;11041;50.854;20.580;2023-05-10T06:37:36;4.78;;;3.17;;
21758;SDS011;11041;50.854;20.580;2023-05-10T06:40:03;8.57;;;3.90;;
21758;SDS011;11041;50.854;20.580;2023-05-10T06:42:31;7.47;;;3.60;;
21758;SDS011;11041;50.854;20.580;2023-05-10T06:44:58;15.10;;;3.90;;
21758;SDS011;11041;50.854;20.580;2023-05-10T06:47:24;7.93;;;3.50;;
21758;SDS011;11041;50.854;20.580;2023-05-10T06:49:51;7.07;;;3.72;;
21758;SDS011;11041;50.854;20.580;2023-05-10T06:52:18;6.97;;;3.20;;
21758;SDS011;11041;50.854;20.580;2023-05-10T06:54:45;5.00;;;3.70;;
21758;SDS011;11041;50.854;20.580;2023-05-10T06:57:11;8.48;;;3.25;;
21758;SDS011;11041;50.854;20.580;2023-05-10T06:59:38;4.13;;;3.08;;
21758;SDS011;11041;50.854;20.580;2023-05-10T07:02:04;5.10;;;2.92;;
21758;SDS011;11041;50.854;20.580;2023-05-10T07:04:31;6.63;;;3.22;;
21758;SDS011;11041;50.854;20.580;2023-05-10T07:06:58;3.42;;;2.97;;
21758;SDS011;11041;50.854;20.580;2023-05-10T07:09:24;4.88;;;3.10;;
21758;SDS011;11041;50.854;20.580;2023-05-10T07:11:51;6.07;;;3.30;;
21758;SDS011;11041;50.854;20.580;2023-05-10T07:14:17;4.88;;;3.00;;
21758;SDS011;11041;50.854;20.580;2023-05-10T07:16:43;5.70;;;3.25;;
21758;SDS011;11041;50.854;20.580;2023-05-10T07:19:10;6.65;;;3.92;;
21758;SDS011;11041;50.854;20.580;2023-05-10T07:21:36;6.38;;;3.28;;
21758;SDS011;11041;50.854;20.580;2023-05-10T07:24:03;6.53;;;2.95;;
21758;SDS011;11041;50.854;20.580;2023-05-10T07:26:29;5.65;;;3.10;;
21758;SDS011;11041;50.854;20.580;2023-05-10T07:28:57;4.50;;;3.00;;
21758;SDS011;11041;50.854;20.580;2023-05-10T07:31:25;4.80;;;3.67;;
21758;SDS011;11041;50.854;20.580;2023-05-10T07:33:52;3.50;;;2.60;;
21758;SDS011;11041;50.854;20.580;2023-05-10T07:36:19;7.35;;;3.00;;
21758;SDS011;11041;50.854;20.580;2023-05-10T07:38:46;27.58;;;5.03;;
21758;SDS011;11041;50.854;20.580;2023-05-10T07:41:12;8.20;;;3.30;;
21758;SDS011;11041;50.854;20.580;2023-05-10T07:43:39;5.70;;;3.33;;
21758;SDS011;11041;50.854;20.580;2023-05-10T07:46:05;5.45;;;3.95;;
21758;SDS011;11041;50.854;20.580;2023-05-10T07:48:32;3.45;;;3.15;;
21758;SDS011;11041;50.854;20.580;2023-05-10T07:50:58;4.75;;;2.72;;
21758;SDS011;11041;50.854;20.580;2023-05-10T07:53:26;11.90;;;3.58;;
21758;SDS011;11041;50.854;20.580;2023-05-10T07:55:59;5.13;;;3.47;;
21758;SDS011;11041;50.854;20.580;2023-05-10T07:58:46;3.47;;;2.97;;
21758;SDS011;11041;50.854;20.580;2023-05-10T08:01:12;4.10;;;3.42;;
21758;SDS011;11041;50.854;20.580;2023-05-10T08:03:39;5.75;;;3.33;;
21758;SDS011;11041;50.854;20.580;2023-05-10T08:06:06;5.93;;;3.28;;
21758;SDS011;11041;50.854;20.580;2023-05-10T08:08:32;9.38;;;3.45;;
21758;SDS011;11041;50.854;20.580;2023-05-10T08:10:59;9.60;;;3.95;;
21758;SDS011;11041;50.854;20.580;2023-05-10T08:13:25;3.60;;;3.00;;
21758;SDS011;11041;50.854;20.580;2023-05-10T08:16:17;9.02;;;3.25;;
21758;SDS011;11041;50.854;20.580;2023-05-10T08:19:09;5.97;;;3.10;;
21758;SDS011;11041;50.854;20.580;2023-05-10T08:22:00;4.97;;;3.17;;
21758;SDS011;11041;50.854;20.580;2023-05-10T08:24:51;3.75;;;3.45;;
21758;SDS011;11041;50.854;20.580;2023-05-10T08:27:42;4.25;;;2.97;;
21758;SDS011;11041;50.854;20.580;2023-05-10T08:30:33;5.38;;;2.72;;
21758;SDS011;11041;50.854;20.580;2023-05-10T08:33:24;3.70;;;2.90;;
21758;SDS011;11041;50.854;20.580;2023-05-10T08:40:25;10.75;;;3.33;;
21758;SDS011;11041;50.854;20.580;2023-05-10T08:43:02;5.55;;;3.42;;
21758;SDS011;11041;50.854;20.580;2023-05-10T08:45:41;4.20;;;3.38;;
21758;SDS011;11041;50.854;20.580;2023-05-10T08:48:13;4.63;;;2.85;;
21758;SDS011;11041;50.854;20.580;2023-05-10T08:50:41;6.30;;;3.13;;
21758;SDS011;11041;50.854;20.580;2023-05-10T08:53:11;3.22;;;2.80;;
21758;SDS011;11041;50.854;20.580;2023-05-10T08:55:40;5.85;;;2.90;;
21758;SDS011;11041;50.854;20.580;2023-05-10T08:58:08;12.85;;;3.35;;
21758;SDS011;11041;50.854;20.580;2023-05-10T09:00:36;4.05;;;3.05;;
21758;SDS011;11041;50.854;20.580;2023-05-10T09:03:03;13.05;;;3.75;;
21758;SDS011;11041;50.854;20.580;2023-05-10T09:05:31;4.45;;;2.90;;
21758;SDS011;11041;50.854;20.580;2023-05-10T09:07:58;3.88;;;3.00;;
21758;SDS011;11041;50.854;20.580;2023-05-10T09:10:27;5.07;;;2.90;;
21758;SDS011;11041;50.854;20.580;2023-05-10T09:12:56;5.63;;;3.10;;
21758;SDS011;11041;50.854;20.580;2023-05-10T09:15:24;3.95;;;3.00;;
21758;SDS011;11041;50.854;20.580;2023-05-10T09:17:51;5.63;;;3.38;;
21758;SDS011;11041;50.854;20.580;2023-05-10T09:20:18;3.55;;;3.05;;
21758;SDS011;11041;50.854;20.580;2023-05-10T09:22:45;4.30;;;3.30;;
21758;SDS011;11041;50.854;20.580;2023-05-10T09:25:13;8.88;;;3.47;;
21758;SDS011;11041;50.854;20.580;2023-05-10T09:27:43;3.63;;;3.00;;
21758;SDS011;11041;50.854;20.580;2023-05-10T09:30:23;4.30;;;3.80;;
21758;SDS011;11041;50.854;20.580;2023-05-10T09:32:55;6.50;;;3.63;;
21758;SDS011;11041;50.854;20.580;2023-05-10T09:35:25;6.35;;;4.82;;
21758;SDS011;11041;50.854;20.580;2023-05-10T09:37:55;4.32;;;3.05;;
21758;SDS011;11041;50.854;20.580;2023-05-10T09:40:25;4.70;;;3.50;;
21758;SDS011;11041;50.854;20.580;2023-05-10T09:42:55;5.20;;;3.08;;
21758;SDS011;11041;50.854;20.580;2023-05-10T09:45:26;7.00;;;3.08;;
21758;SDS011;11041;50.854;20.580;2023-05-10T09:47:56;3.63;;;2.63;;
21758;SDS011;11041;50.854;20.580;2023-05-10T09:50:25;3.33;;;2.50;;
21758;SDS011;11041;50.854;20.580;2023-05-10T09:52:54;3.55;;;3.03;;
21758;SDS011;11041;50.854;20.580;2023-05-10T09:55:45;3.20;;;2.50;;
21758;SDS011;11041;50.854;20.580;2023-05-10T09:58:15;4.70;;;2.95;;
21758;SDS011;11041;50.854;20.580;2023-05-10T10:00:42;3.92;;;3.15;;
21758;SDS011;11041;50.854;20.580;2023-05-10T10:03:14;5.82;;;2.67;;
21758;SDS011;11041;50.854;20.580;2023-05-10T10:05:43;3.05;;;2.67;;
21758;SDS011;11041;50.854;20.580;2023-05-10T10:08:11;4.88;;;2.65;;
21758;SDS011;11041;50.854;20.580;2023-05-10T10:10:40;3.03;;;2.47;;
21758;SDS011;11041;50.854;20.580;2023-05-10T10:13:07;3.15;;;2.58;;
21758;SDS011;11041;50.854;20.580;2023-05-10T10:15:34;5.15;;;2.85;;
21758;SDS011;11041;50.854;20.580;2023-05-10T10:18:01;5.60;;;2.55;;
21758;SDS011;11041;50.854;20.580;2023-05-10T10:20:31;3.13;;;2.40;;
21758;SDS011;11041;50.854;20.580;2023-05-10T10:22:58;2.53;;;2.33;;
21758;SDS011;11041;50.854;20.580;2023-05-10T10:25:25;5.68;;;2.80;;
21758;SDS011;11041;50.854;20.580;2023-05-10T10:36:26;7.53;;;3.03;;
21758;SDS011;11041;50.854;20.580;2023-05-10T10:38:57;6.70;;;3.40;;
21758;SDS011;11041;50.854;20.580;2023-05-10T10:41:30;5.00;;;3.15;;
21758;SDS011;11041;50.854;20.580;2023-05-10T10:52:28;2.55;;;2.35;;
21758;SDS011;11041;50.854;20.580;2023-05-10T10:55:18;4.22;;;2.80;;
21758;SDS011;11041;50.854;20.580;2023-05-10T10:57:54;3.78;;;2.38;;
21758;SDS011;11041;50.854;20.580;2023-05-10T11:00:30;2.97;;;2.58;;
21758;SDS011;11041;50.854;20.580;2023-05-10T11:03:10;3.13;;;2.58;;
21758;SDS011;11041;50.854;20.580;2023-05-10T11:05:46;4.20;;;2.58;;
21758;SDS011;11041;50.854;20.580;2023-05-10T11:08:16;5.15;;;2.28;;
21758;SDS011;11041;50.854;20.580;2023-05-10T11:10:53;3.53;;;2.47;;
21758;SDS011;11041;50.854;20.580;2023-05-10T11:13:33;6.13;;;2.80;;
21758;SDS011;11041;50.854;20.580;2023-05-10T11:16:40;5.10;;;2.60;;
21758;SDS011;11041;50.854;20.580;2023-05-10T11:19:09;5.68;;;2.60;;
21758;SDS011;11041;50.854;20.580;2023-05-10T11:24:39;6.35;;;2.90;;
21758;SDS011;11041;50.854;20.580;2023-05-10T11:27:23;2.60;;;2.40;;
21758;SDS011;11041;50.854;20.580;2023-05-10T11:29:53;4.97;;;2.35;;
21758;SDS011;11041;50.854;20.580;2023-05-10T11:32:20;4.45;;;2.45;;
21758;SDS011;11041;50.854;20.580;2023-05-10T11:34:47;3.10;;;2.80;;
21758;SDS011;11041;50.854;20.580;2023-05-10T11:37:14;3.70;;;2.67;;
21758;SDS011;11041;50.854;20.580;2023-05-10T11:39:45;4.10;;;2.58;;
21758;SDS011;11041;50.854;20.580;2023-05-10T11:42:13;3.90;;;2.53;;
21758;SDS011;11041;50.854;20.580;2023-05-10T11:44:39;4.95;;;2.42;;
21758;SDS011;11041;50.854;20.580;2023-05-10T11:47:07;3.35;;;2.10;;
21758;SDS011;11041;50.854;20.580;2023-05-10T11:49:34;2.97;;;2.53;;
21758;SDS011;11041;50.854;20.580;2023-05-10T11:52:07;4.28;;;2.50;;
21758;SDS011;11041;50.854;20.580;2023-05-10T11:54:36;2.42;;;2.22;;
21758;SDS011;11041;50.854;20.580;2023-05-10T11:57:03;3.55;;;2.60;;
21758;SDS011;11041;50.854;20.580;2023-05-10T11:59:30;7.85;;;2.70;;
21758;SDS011;11041;50.854;20.580;2023-05-10T12:01:56;3.45;;;2.85;;
21758;SDS011;11041;50.854;20.580;2023-05-10T12:04:23;6.07;;;2.70;;
21758;SDS011;11041;50.854;20.580;2023-05-10T12:06:51;4.15;;;2.40;;
21758;SDS011;11041;50.854;20.580;2023-05-10T12:09:17;3.92;;;2.65;;
21758;SDS011;11041;50.854;20.580;2023-05-10T12:11:44;6.05;;;2.53;;
21758;SDS011;11041;50.854;20.580;2023-05-10T12:14:10;5.20;;;2.30;;
21758;SDS011;11041;50.854;20.580;2023-05-10T12:16:37;5.50;;;2.45;;
21758;SDS011;11041;50.854;20.580;2023-05-10T12:19:08;10.00;;;3.42;;
21758;SDS011;11041;50.854;20.580;2023-05-10T12:21:35;4.32;;;2.50;;
21758;SDS011;11041;50.854;20.580;2023-05-10T12:24:02;5.22;;;2.50;;
21758;SDS011;11041;50.854;20.580;2023-05-10T12:26:31;5.50;;;2.90;;
21758;SDS011;11041;50.854;20.580;2023-05-10T12:31:51;6.65;;;2.60;;
21758;SDS011;11041;50.854;20.580;2023-05-10T12:34:27;5.35;;;2.58;;
21758;SDS011;11041;50.854;20.580;2023-05-10T12:37:04;6.90;;;2.78;;
21758;SDS011;11041;50.854;20.580;2023-05-10T12:39:41;3.92;;;2.65;;
21758;SDS011;11041;50.854;20.580;2023-05-10T12:42:10;3.72;;;2.28;;
21758;SDS011;11041;50.854;20.580;2023-05-10T12:44:37;4.85;;;2.55;;
21758;SDS011;11041;50.854;20.580;2023-05-10T12:47:05;3.47;;;2.50;;
21758;SDS011;11041;50.854;20.580;2023-05-10T12:49:32;6.15;;;2.40;;
21758;SDS011;11041;50.854;20.580;2023-05-10T12:51:59;4.45;;;2.15;;
21758;SDS011;11041;50.854;20.580;2023-05-10T12:54:26;10.35;;;3.10;;
21758;SDS011;11041;50.854;20.580;2023-05-10T12:56:53;9.07;;;2.80;;
21758;SDS011;11041;50.854;20.580;2023-05-10T12:59:20;4.30;;;2.63;;
21758;SDS011;11041;50.854;20.580;2023-05-10T13:01:48;7.45;;;2.55;;
21758;SDS011;11041;50.854;20.580;2023-05-10T13:04:15;5.22;;;2.58;;
21758;SDS011;11041;50.854;20.580;2023-05-10T13:06:42;3.10;;;2.45;;
21758;SDS011;11041;50.854;20.580;2023-05-10T13:09:09;5.82;;;2.30;;
21758;SDS011;11041;50.854;20.580;2023-05-10T13:11:35;4.57;;;2.22;;
21758;SDS011;11041;50.854;20.580;2023-05-10T13:14:02;5.10;;;2.20;;
21758;SDS011;11041;50.854;20.580;2023-05-10T13:16:28;6.40;;;2.30;;
21758;SDS011;11041;50.854;20.580;2023-05-10T13:18:55;3.33;;;2.20;;
21758;SDS011;11041;50.854;20.580;2023-05-10T13:21:22;4.43;;;2.72;;
21758;SDS011;11041;50.854;20.580;2023-05-10T13:23:50;5.80;;;2.65;;
21758;SDS011;11041;50.854;20.580;2023-05-10T13:26:16;4.50;;;2.58;;
21758;SDS011;11041;50.854;20.580;2023-05-10T13:28:43;4.85;;;2.40;;
21758;SDS011;11041;50.854;20.580;2023-05-10T13:31:11;4.95;;;2.30;;
21758;SDS011;11041;50.854;20.580;2023-05-10T13:33:38;3.28;;;2.30;;
21758;SDS011;11041;50.854;20.580;2023-05-10T13:36:04;3.28;;;2.38;;
21758;SDS011;11041;50.854;20.580;2023-05-10T13:38:32;4.10;;;2.72;;
21758;SDS011;11041;50.854;20.580;2023-05-10T13:40:59;3.72;;;2.35;;
21758;SDS011;11041;50.854;20.580;2023-05-10T13:43:26;6.63;;;2.95;;
21758;SDS011;11041;50.854;20.580;2023-05-10T13:45:55;6.53;;;2.55;;
21758;SDS011;11041;50.854;20.580;2023-05-10T13:48:22;2.85;;;1.90;;
21758;SDS011;11041;50.854;20.580;2023-05-10T13:50:51;6.07;;;2.40;;
21758;SDS011;11041;50.854;20.580;2023-05-10T13:53:19;4.97;;;2.20;;
21758;SDS011;11041;50.854;20.580;2023-05-10T13:55:47;6.65;;;2.30;;
21758;SDS011;11041;50.854;20.580;2023-05-10T13:58:13;3.15;;;2.00;;
21758;SDS011;11041;50.854;20.580;2023-05-10T14:00:40;3.75;;;2.13;;
21758;SDS011;11041;50.854;20.580;2023-05-10T14:03:07;5.32;;;2.30;;
21758;SDS011;11041;50.854;20.580;2023-05-10T14:05:36;9.35;;;2.45;;
21758;SDS011;11041;50.854;20.580;2023-05-10T14:08:04;6.53;;;2.65;;
21758;SDS011;11041;50.854;20.580;2023-05-10T14:10:31;6.38;;;2.60;;
21758;SDS011;11041;50.854;20.580;2023-05-10T14:12:58;6.13;;;2.53;;
21758;SDS011;11041;50.854;20.580;2023-05-10T14:15:25;6.20;;;2.30;;
21758;SDS011;11041;50.854;20.580;2023-05-10T14:17:51;3.42;;;2.30;;
21758;SDS011;11041;50.854;20.580;2023-05-10T14:20:17;4.32;;;2.80;;
21758;SDS011;11041;50.854;20.580;2023-05-10T14:22:44;5.85;;;2.15;;
21758;SDS011;11041;50.854;20.580;2023-05-10T14:25:10;3.75;;;2.13;;
21758;SDS011;11041;50.854;20.580;2023-05-10T14:27:38;3.42;;;2.00;;
21758;SDS011;11041;50.854;20.580;2023-05-10T14:30:05;2.30;;;1.75;;
21758;SDS011;11041;50.854;20.580;2023-05-10T14:32:33;3.05;;;2.13;;
21758;SDS011;11041;50.854;20.580;2023-05-10T14:34:59;2.35;;;1.83;;
21758;SDS011;11041;50.854;20.580;2023-05-10T14:37:26;6.72;;;2.20;;
21758;SDS011;11041;50.854;20.580;2023-05-10T14:39:53;3.13;;;2.10;;
21758;SDS011;11041;50.854;20.580;2023-05-10T14:42:20;3.28;;;2.20;;
21758;SDS011;11041;50.854;20.580;2023-05-10T14:44:47;4.25;;;2.20;;
21758;SDS011;11041;50.854;20.580;2023-05-10T14:47:13;4.60;;;2.25;;
21758;SDS011;11041;50.854;20.580;2023-05-10T14:49:40;3.38;;;2.10;;
21758;SDS011;11041;50.854;20.580;2023-05-10T14:52:06;4.57;;;1.90;;
21758;SDS011;11041;50.854;20.580;2023-05-10T14:54:33;8.68;;;2.20;;
21758;SDS011;11041;50.854;20.580;2023-05-10T14:57:00;2.70;;;2.30;;
21758;SDS011;11041;50.854;20.580;2023-05-10T14:59:26;8.40;;;2.10;;
21758;SDS011;11041;50.854;20.580;2023-05-10T15:01:53;4.45;;;2.17;;
21758;SDS011;11041;50.854;20.580;2023-05-10T15:04:23;2.10;;;1.80;;
21758;SDS011;11041;50.854;20.580;2023-05-10T15:06:50;7.93;;;2.40;;
21758;SDS011;11041;50.854;20.580;2023-05-10T15:09:17;2.45;;;2.15;;
21758;SDS011;11041;50.854;20.580;2023-05-10T15:11:45;6.10;;;2.63;;
21758;SDS011;11041;50.854;20.580;2023-05-10T15:14:12;5.07;;;2.22;;
21758;SDS011;11041;50.854;20.580;2023-05-10T15:16:39;3.65;;;2.35;;
21758;SDS011;11041;50.854;20.580;2023-05-10T15:19:08;5.07;;;2.05;;
21758;SDS011;11041;50.854;20.580;2023-05-10T15:21:36;3.03;;;2.08;;
21758;SDS011;11041;50.854;20.580;2023-05-10T15:24:05;5.13;;;1.98;;
21758;SDS011;11041;50.854;20.580;2023-05-10T15:26:31;7.55;;;2.65;;
21758;SDS011;11041;50.854;20.580;2023-05-10T15:29:00;2.88;;;2.30;;
21758;SDS011;11041;50.854;20.580;2023-05-10T15:31:27;2.60;;;2.30;;
21758;SDS011;11041;50.854;20.580;2023-05-10T15:33:56;5.10;;;2.50;;
21758;SDS011;11041;50.854;20.580;2023-05-10T15:36:25;5.07;;;2.55;;